Flight Track Log - Related Links

Times and Time Zones

All times are in EDT time to prevent confusion due to time zone crossing. See the SWA565 flight status page for this flight to view local times or setup timezone preferences in your user account.

Time Position Orientation Groundspeed Altitude Reporting Facility
EDT Latitude Longitude Course Direction KTS MPH feet Rate Location/Type
Sun 11:07:03 PM 40.8067 -112.0019 285° West 151 174 5,400  Level Salt Lake Center
Sun 11:08:04 PM 40.8214 -112.0764 285° West 231 266 7,900 3,600 Climbing Salt Lake Center
Sun 11:08:58 PM 40.8203 -112.1589 269° West 245 282 12,300 4,333 Climbing Salt Lake Center
Sun 11:10:10 PM 40.7919 -112.2428 246° West 232 267 17,000 3,383 Climbing Salt Lake Center
Sun 11:11:11 PM 40.7186 -112.2828 202° Southwest 301 346 19,800 3,197 Climbing Salt Lake Center
Sun 11:12:12 PM 40.6358 -112.2989 188° South 302 348 23,500 3,098 Climbing Salt Lake Center
Sun 11:13:13 PM 40.5469 -112.3150 188° South 324 373 26,100 2,410 Climbing Salt Lake Center
Sun 11:14:14 PM 40.4531 -112.3344 189° South 343 395 28,400 1,756 Climbing Salt Lake Center
Sun 11:15:16 PM 40.3464 -112.3586 190° South 393 452 29,700 1,756 Climbing Salt Lake Center
Sun 11:16:17 PM 40.2578 -112.4139 205° Southwest 347 399 32,000 1,131 Climbing Salt Lake Center
Sun 11:17:18 PM 40.1553 -112.4878 209° Southwest 351 404 32,000  Level Salt Lake Center
Sun 11:18:19 PM 40.0683 -112.5475 208° Southwest 354 407 32,000  Level Salt Lake Center
Sun 11:19:20 PM 39.9817 -112.6089 208° Southwest 356 410 32,000  Level Salt Lake Center
Sun 11:20:22 PM 39.8953 -112.6708 209° Southwest 355 409 32,000  Level Salt Lake Center
Sun 11:21:23 PM 39.8064 -112.7289 207° Southwest 356 410 32,000  Level Salt Lake Center
Sun 11:22:24 PM 39.7239 -112.7858 208° Southwest 358 412 32,000  Level Salt Lake Center
Sun 11:23:25 PM 39.6261 -112.8253 197° South 370 426 32,000  Level Salt Lake Center
Sun 11:24:26 PM 39.5081 -112.8764 198° South 373 429 32,000  Level Salt Lake Center
Sun 11:25:27 PM 39.4083 -112.9189 198° South 378 435 32,000  Level Salt Lake Center
Sun 11:26:28 PM 39.3097 -112.9600 198° South 375 432 32,000  Level Salt Lake Center
Sun 11:27:30 PM 39.2103 -113.0039 199° South 378 435 32,000  Level Salt Lake Center
Sun 11:28:31 PM 39.1111 -113.0461 198° South 377 434 32,000  Level Salt Lake Center
Sun 11:29:32 PM 39.0111 -113.0875 198° South 377 434 32,000  Level Salt Lake Center
Sun 11:30:33 PM 38.9111 -113.1289 198° South 379 436 32,000  Level Salt Lake Center
Sun 11:31:34 PM 38.8100 -113.1719 198° South 382 440 32,000  Level Salt Lake Center
Sun 11:32:35 PM 38.7100 -113.2139 198° South 381 438 32,000  Level Salt Lake Center
Sun 11:33:36 PM 38.6086 -113.2567 198° South 383 441 32,000  Level Salt Lake Center
Sun 11:34:37 PM 38.4878 -113.3086 199° South 383 441 32,000  Level Salt Lake Center
Sun 11:35:39 PM 38.3853 -113.3522 198° South 387 445 32,000  Level Salt Lake Center
Sun 11:36:40 PM 38.2825 -113.3931 197° South 388 447 32,000  Level Salt Lake Center
Sun 11:37:41 PM 38.1806 -113.4356 198° South 388 447 32,000  Level Salt Lake Center
Sun 11:38:42 PM 38.0789 -113.4797 199° South 388 447 32,000  Level Salt Lake Center
Sun 11:39:43 PM 37.9781 -113.5217 198° South 385 443 32,000  Level Salt Lake Center
Sun 11:40:44 PM 37.8758 -113.5628 198° South 387 445 32,000  Level Salt Lake Center
Sun 11:41:45 PM 37.7739 -113.6053 198° South 388 447 32,000  Level Salt Lake Center
Sun 11:42:46 PM 37.6708 -113.6469 198° South 390 449 32,000  Level Salt Lake Center
Sun 11:43:47 PM 37.5453 -113.6967 197° South 396 456 32,000  Level Salt Lake Center
Sun 11:44:48 PM 37.4414 -113.7381 198° South 395 455 32,000  Level Salt Lake Center
Sun 11:45:49 PM 37.3361 -113.7808 198° South 398 458 32,000  Level Salt Lake Center
Sun 11:46:51 PM 37.2311 -113.8231 198° South 398 458 32,000 -195 Level Salt Lake Center
Sun 11:47:52 PM 37.1275 -113.8664 198° South 396 456 31,600 -1,143 Descending Salt Lake Center
Sun 11:48:36 PM 37.0542 -113.8917 195° South 390 449 30,000 -2,094 Descending Los Angeles Center
Sun 11:49:38 PM 36.9539 -113.9325 198° South 380 437 27,900 -2,049 Descending Los Angeles Center
Sun 11:50:39 PM 36.8581 -113.9706 198° South 365 420 25,800 -2,098 Descending Los Angeles Center
Sun 11:51:41 PM 36.7547 -114.0122 198° South 359 413 23,600 -2,081 Descending Los Angeles Center
Sun 11:52:43 PM 36.6603 -114.0503 198° South 358 412 21,500 -2,029 Descending Los Angeles Center
Sun 11:53:57 PM 36.5917 -114.1303 223° Southwest 347 399 19,000 -2,382 Descending Los Angeles Center
Sun 11:54:59 PM 36.5236 -114.2506 235° Southwest 326 375 16,100 -2,411 Descending Los Angeles Center
Sun 11:55:49 PM 36.4822 -114.3322 238° Southwest 306 352 14,500 -1,459 Descending Los Angeles Center
Sun 11:56:13 PM 36.4747 -114.3372 208° Southwest 312 359 14,300 -1,745 Descending Los Angeles Center
Sun 11:56:44 PM 36.4386 -114.4086 238° Southwest 299 344 12,900 -2,032 Descending Los Angeles Center
Sun 11:57:15 PM 36.4175 -114.4375 228° Southwest 300 345 12,200 -692 Descending Los Angeles Center
Sun 11:58:02 PM 36.3597 -114.4917 217° Southwest 302 348 12,000 -563 Descending Los Angeles Center
Sun 11:58:51 PM 36.2903 -114.5100 192° South 295 339 11,300 -789 Descending Los Angeles Center
Sun 11:59:18 PM 36.2553 -114.5228 196° South 297 342 11,000 -982 Descending Los Angeles Center
Sun 11:59:46 PM 36.2339 -114.5583 233° Southwest 280 322 10,400 -1,065 Descending Los Angeles Center
Mon 12:00:20 AM 36.2044 -114.5917 222° Southwest 268 308 9,900 -1,180 Descending Los Angeles Center
Mon 12:00:47 AM 36.1814 -114.6242 229° Southwest 259 298 9,200 -1,574 Descending Los Angeles Center
Mon 12:01:21 AM 36.1639 -114.6617 240° Southwest 255 293 8,300 -1,519 Descending Los Angeles Center
Mon 12:02:06 AM 36.1536 -114.7322 260° West 259 298 7,200 -1,258 Descending Los Angeles Center
Mon 12:02:23 AM 36.1503 -114.7492 256° West 257 296 7,000 -545 Descending Los Angeles Center
Mon 12:03:01 AM 36.1442 -114.8075 263° West 237 273 6,700 -581 Descending Los Angeles Center
Mon 12:03:25 AM 36.1394 -114.8314 256° West 250 288 6,400 -689 Descending Los Angeles Center
Mon 12:04:02 AM 36.1378 -114.8869 268° West 231 266 6,000 -393 Descending Los Angeles Center
Mon 12:04:26 AM 36.1350 -114.9086 261° West 234 269 6,000 -100 Level Los Angeles Center
Mon 12:05:02 AM 36.1339 -114.9575 268° West 189 217 5,900 -290 Descending Los Angeles Center
Mon 12:05:28 AM 36.1328 -114.9747 265° West 205 236 5,700 -1,082 Descending Los Angeles Center
Mon 12:06:03 AM 36.1361 -115.0178 275° West 175 201 4,800 -1,161 Descending Los Angeles Center
Mon 12:06:30 AM 36.1372 -115.0333 275° West 183 211 4,500 -1,180 Descending Los Angeles Center
Mon 12:07:04 AM 36.1386 -115.0783 272° West 172 198 3,600 -1,082 Descending Los Angeles Center
Mon 12:07:31 AM 36.1397 -115.1017 273° West 173 199 3,400 -689 Descending Los Angeles Center
Mon 12:08:05 AM 36.1297 -115.1267 244° Southwest 136 157 2,900 -774 Descending Los Angeles Center
Mon 12:08:33 AM 36.1231 -115.1406 239° Southwest 144 166 2,600 -716 Descending Los Angeles Center
Mon 12:09:12 AM 36.1006 -115.1522 203° Southwest 125 144 2,100 -590 Descending Los Angeles Center
Mon 12:09:34 AM 36.0908 -115.1567 200° South 130 150 2,000 -273 Descending Los Angeles Center
Mon 12:11:00 AM 36.0801 -115.1523 219° Southwest  Level Estimated

Login

Don't have an account? Register now (free) for customized features, flight alerts, and more!